createdAt,value
2022-10-30T00:01:19.655Z,14.50
2022-10-30T00:03:57.816Z,14.50
2022-10-30T00:06:25.156Z,14.50
2022-10-30T00:08:52.542Z,14.50
2022-10-30T00:11:19.567Z,14.50
2022-10-30T00:13:46.799Z,14.50
2022-10-30T00:16:16.458Z,14.40
2022-10-30T00:18:43.538Z,14.40
2022-10-30T00:21:15.560Z,14.30
2022-10-30T00:23:46.960Z,14.20
2022-10-30T00:26:17.193Z,14.20
2022-10-30T00:28:50.536Z,14.20
2022-10-30T00:31:17.851Z,14.10
2022-10-30T00:33:48.631Z,14.10
2022-10-30T00:36:18.362Z,14.00
2022-10-30T00:38:45.713Z,14.00
2022-10-30T00:41:17.900Z,14.00
2022-10-30T00:43:45.801Z,13.90
2022-10-30T00:46:34.863Z,13.90
2022-10-30T00:49:20.534Z,13.80
2022-10-30T00:51:54.693Z,13.80
2022-10-30T00:54:23.480Z,13.80
2022-10-30T00:56:51.753Z,13.80
2022-10-30T00:59:29.793Z,13.80
2022-10-30T01:01:58.106Z,13.80
2022-10-30T01:04:29.096Z,13.80
2022-10-30T01:07:06.662Z,13.80
2022-10-30T01:09:34.153Z,13.80
2022-10-30T01:12:01.854Z,13.90
2022-10-30T01:14:33.440Z,13.80
2022-10-30T01:17:18.545Z,13.80
2022-10-30T01:19:53.280Z,13.80
2022-10-30T01:23:04.713Z,13.70
2022-10-30T01:25:53.357Z,13.70
2022-10-30T01:28:26.712Z,13.70
2022-10-30T01:31:24.382Z,13.70
2022-10-30T01:34:19.252Z,13.70
2022-10-30T01:36:56.682Z,13.70
2022-10-30T01:39:34.626Z,13.80
2022-10-30T01:42:29.219Z,13.70
2022-10-30T01:44:56.763Z,13.70
2022-10-30T01:48:14.809Z,13.80
2022-10-30T01:50:55.241Z,13.80
2022-10-30T01:53:25.634Z,13.80
2022-10-30T01:56:02.371Z,13.80
2022-10-30T01:58:47.719Z,13.80
2022-10-30T02:01:18.508Z,13.80
2022-10-30T02:03:46.783Z,13.80
2022-10-30T02:06:13.906Z,13.70
2022-10-30T02:08:41.320Z,13.70
2022-10-30T02:11:10.569Z,13.70
2022-10-30T02:13:38.705Z,13.70
2022-10-30T02:16:06.396Z,13.60
2022-10-30T02:18:33.758Z,13.60
2022-10-30T02:21:01.419Z,13.50
2022-10-30T02:23:31.044Z,13.50
2022-10-30T02:25:58.329Z,13.50
2022-10-30T02:28:25.573Z,13.50
2022-10-30T02:30:53.114Z,13.60
2022-10-30T02:33:20.445Z,13.70
2022-10-30T02:35:47.743Z,13.70
2022-10-30T02:38:14.823Z,13.70
2022-10-30T02:40:42.429Z,13.70
2022-10-30T02:43:12.520Z,13.70
2022-10-30T02:45:39.677Z,13.70
2022-10-30T02:48:07.168Z,13.70
2022-10-30T02:50:36.745Z,13.60
2022-10-30T02:53:06.551Z,13.60
2022-10-30T02:55:34.054Z,13.60
2022-10-30T02:58:01.667Z,13.50
2022-10-30T03:03:23.061Z,13.40
2022-10-30T03:05:53.885Z,13.30
2022-10-30T03:08:21.091Z,13.20
2022-10-30T03:10:48.081Z,13.10
2022-10-30T03:13:15.420Z,13.10
2022-10-30T03:15:42.986Z,13.00
2022-10-30T03:18:10.076Z,12.90
2022-10-30T03:20:37.413Z,12.90
2022-10-30T03:23:04.706Z,12.80
2022-10-30T03:25:34.542Z,12.80
2022-10-30T03:28:03.969Z,12.80
2022-10-30T03:30:34.282Z,12.80
2022-10-30T03:33:01.849Z,12.80
2022-10-30T03:35:29.084Z,12.70
2022-10-30T03:37:56.232Z,12.80
2022-10-30T03:40:28.051Z,12.70
2022-10-30T03:42:55.447Z,12.70
2022-10-30T03:45:25.013Z,12.70
2022-10-30T03:47:52.226Z,12.70
2022-10-30T03:50:19.374Z,12.70
2022-10-30T03:52:46.665Z,12.70
2022-10-30T03:55:14.370Z,12.70
2022-10-30T03:57:41.774Z,12.70
2022-10-30T04:00:09.430Z,12.70
2022-10-30T04:02:36.707Z,12.70
2022-10-30T04:05:06.235Z,12.70
2022-10-30T04:07:33.594Z,12.70
2022-10-30T04:10:03.617Z,12.60
2022-10-30T04:12:30.701Z,12.60
2022-10-30T04:15:00.648Z,12.60
2022-10-30T04:17:27.754Z,12.60
2022-10-30T04:19:54.888Z,12.60
2022-10-30T04:22:22.492Z,12.60
2022-10-30T04:24:49.670Z,12.60
2022-10-30T04:27:17.207Z,12.60
2022-10-30T04:29:44.626Z,12.50
2022-10-30T04:32:11.899Z,12.50
2022-10-30T04:34:43.807Z,12.50
2022-10-30T04:37:13.669Z,12.50
2022-10-30T04:39:43.815Z,12.40
2022-10-30T04:42:16.062Z,12.40
2022-10-30T04:44:43.150Z,12.40
2022-10-30T04:47:10.173Z,12.40
2022-10-30T04:49:37.795Z,12.40
2022-10-30T04:52:04.949Z,12.40
2022-10-30T04:54:34.490Z,12.40
2022-10-30T04:57:04.380Z,12.40
2022-10-30T04:59:31.597Z,12.50
2022-10-30T05:01:58.837Z,12.50
2022-10-30T05:04:26.342Z,12.50
2022-10-30T05:06:53.521Z,12.50
2022-10-30T05:09:20.716Z,12.50
2022-10-30T05:11:48.034Z,12.60
2022-10-30T05:14:15.170Z,12.60
2022-10-30T05:16:42.575Z,12.70
2022-10-30T05:19:10.154Z,12.60
2022-10-30T05:21:37.796Z,12.60
2022-10-30T05:24:08.008Z,12.70
2022-10-30T05:26:37.854Z,12.70
2022-10-30T05:29:05.113Z,12.70
2022-10-30T05:31:32.272Z,12.70
2022-10-30T05:34:01.783Z,12.70
2022-10-30T05:36:31.604Z,12.80
2022-10-30T05:39:01.466Z,12.80
2022-10-30T05:41:29.826Z,12.80
2022-10-30T05:43:57.206Z,12.90
2022-10-30T05:46:24.914Z,12.90
2022-10-30T05:48:51.935Z,13.00
2022-10-30T05:51:19.293Z,13.00
2022-10-30T05:53:48.597Z,13.10
2022-10-30T05:56:15.776Z,13.20
2022-10-30T05:58:48.130Z,13.30
2022-10-30T06:01:15.658Z,13.50
2022-10-30T06:03:43.008Z,13.70
2022-10-30T06:06:12.804Z,13.90
2022-10-30T06:08:40.560Z,14.20
2022-10-30T06:11:07.570Z,14.60
2022-10-30T06:13:34.756Z,14.90
2022-10-30T06:16:04.549Z,15.30
2022-10-30T06:18:31.566Z,15.80
2022-10-30T06:21:01.547Z,16.40
2022-10-30T06:23:31.180Z,16.90
2022-10-30T06:25:58.162Z,17.60
2022-10-30T06:28:28.269Z,17.90
2022-10-30T06:30:55.499Z,18.70
2022-10-30T06:33:24.736Z,18.90
2022-10-30T06:35:52.747Z,18.90
2022-10-30T06:38:20.815Z,19.30
2022-10-30T06:40:48.962Z,20.20
2022-10-30T06:43:16.387Z,21.50
2022-10-30T06:45:43.627Z,22.20
2022-10-30T06:48:10.663Z,23.30
2022-10-30T06:50:40.287Z,24.40
2022-10-30T06:53:07.601Z,25.40
2022-10-30T06:55:37.214Z,25.50
2022-10-30T06:58:04.677Z,25.30
2022-10-30T07:00:34.151Z,25.40
2022-10-30T07:03:02.717Z,25.40
2022-10-30T07:05:30.607Z,26.30
2022-10-30T07:07:58.369Z,28.10
2022-10-30T07:10:27.750Z,29.70
2022-10-30T07:12:58.431Z,30.60
2022-10-30T07:15:26.898Z,31.60
2022-10-30T07:17:55.011Z,31.80
2022-10-30T07:20:24.297Z,33.00
2022-10-30T07:22:51.779Z,33.90
2022-10-30T07:25:19.129Z,34.40
2022-10-30T07:27:51.618Z,35.00
2022-10-30T07:30:21.525Z,34.90
2022-10-30T07:32:59.976Z,35.20
2022-10-30T07:35:28.593Z,33.40
2022-10-30T07:38:11.321Z,33.20
2022-10-30T07:40:40.608Z,33.90
2022-10-30T07:43:09.568Z,32.80
2022-10-30T07:45:36.690Z,31.20
2022-10-30T07:48:06.191Z,30.00
2022-10-30T07:50:36.068Z,28.90
2022-10-30T07:53:03.206Z,29.10
2022-10-30T07:55:30.685Z,29.90
2022-10-30T07:57:58.577Z,30.20
2022-10-30T08:00:28.043Z,30.30
2022-10-30T08:03:01.465Z,30.50
2022-10-30T08:05:31.989Z,29.80
2022-10-30T08:08:02.063Z,28.70
2022-10-30T08:10:29.378Z,27.50
2022-10-30T08:12:59.332Z,26.50
2022-10-30T08:15:26.907Z,25.60
2022-10-30T08:17:56.995Z,25.10
2022-10-30T08:20:25.005Z,24.50
2022-10-30T08:22:53.797Z,24.30
2022-10-30T08:25:25.460Z,24.10
2022-10-30T08:27:57.351Z,27.80
2022-10-30T08:30:27.001Z,32.90
2022-10-30T08:32:59.450Z,36.80
2022-10-30T08:35:27.197Z,39.90
2022-10-30T08:37:58.443Z,42.10
2022-10-30T08:40:27.130Z,43.50
2022-10-30T08:42:56.051Z,43.50
2022-10-30T08:45:29.739Z,44.50
2022-10-30T08:48:02.897Z,46.10
2022-10-30T08:50:32.425Z,46.30
2022-10-30T08:53:08.658Z,47.00
2022-10-30T08:55:38.998Z,47.30
2022-10-30T08:58:06.405Z,46.60
2022-10-30T09:00:33.463Z,45.30
2022-10-30T09:03:01.545Z,42.90
2022-10-30T09:05:30.438Z,41.10
2022-10-30T09:07:58.665Z,38.80
2022-10-30T09:10:27.139Z,36.30
2022-10-30T09:12:58.439Z,37.40
2022-10-30T09:15:26.649Z,37.40
2022-10-30T09:18:03.157Z,37.30
2022-10-30T09:20:31.580Z,36.90
2022-10-30T09:23:01.636Z,37.60
2022-10-30T09:25:31.387Z,38.60
2022-10-30T09:28:03.547Z,37.50
2022-10-30T09:30:30.657Z,36.90
2022-10-30T09:33:00.034Z,36.70
2022-10-30T09:35:30.269Z,36.20
2022-10-30T09:37:59.881Z,38.90
2022-10-30T09:40:49.216Z,41.10
2022-10-30T09:43:45.860Z,41.50
2022-10-30T09:46:39.155Z,42.60
2022-10-30T09:49:12.436Z,43.10
2022-10-30T09:51:49.097Z,42.90
2022-10-30T09:54:48.688Z,43.40
2022-10-30T09:57:24.883Z,43.30
2022-10-30T10:00:03.928Z,43.40
2022-10-30T10:02:52.283Z,43.40
2022-10-30T10:05:27.805Z,43.00
2022-10-30T10:08:06.772Z,42.90
2022-10-30T10:10:39.094Z,42.80
2022-10-30T10:13:10.526Z,42.40
2022-10-30T10:15:48.598Z,42.50
2022-10-30T10:18:25.612Z,41.90
2022-10-30T10:20:56.435Z,42.20
2022-10-30T10:23:32.449Z,42.80
2022-10-30T10:26:10.105Z,43.00
2022-10-30T10:29:00.635Z,42.90
2022-10-30T10:32:00.724Z,43.00
2022-10-30T10:34:36.070Z,42.90
2022-10-30T10:37:27.568Z,43.00
2022-10-30T10:40:27.083Z,42.90
2022-10-30T10:43:15.983Z,42.40
2022-10-30T10:46:05.055Z,41.30
2022-10-30T10:48:35.332Z,40.70
2022-10-30T10:51:10.736Z,40.40
2022-10-30T10:54:01.138Z,39.20
2022-10-30T10:56:33.467Z,37.60
2022-10-30T10:59:05.451Z,36.20
2022-10-30T11:01:41.095Z,36.70
2022-10-30T11:04:31.547Z,37.60
2022-10-30T11:07:02.435Z,38.80
2022-10-30T11:09:32.021Z,39.00
2022-10-30T11:11:59.255Z,38.90
2022-10-30T11:14:31.736Z,37.60
2022-10-30T11:17:15.921Z,36.40
2022-10-30T11:19:46.501Z,35.20
2022-10-30T11:22:39.242Z,34.10
2022-10-30T11:25:33.161Z,33.00
2022-10-30T11:28:03.124Z,31.60
2022-10-30T11:30:30.778Z,30.70
2022-10-30T11:32:59.904Z,30.00
2022-10-30T11:35:27.495Z,29.20
2022-10-30T11:38:19.261Z,28.60
2022-10-30T11:40:52.102Z,28.00
2022-10-30T11:43:22.882Z,27.50
2022-10-30T11:45:51.115Z,27.00
2022-10-30T11:48:27.469Z,26.60
2022-10-30T11:50:59.876Z,26.30
2022-10-30T11:53:49.111Z,26.00
2022-10-30T11:56:22.043Z,25.80
2022-10-30T11:58:58.982Z,25.50
2022-10-30T12:01:34.883Z,25.20
2022-10-30T12:04:34.930Z,25.00
2022-10-30T12:07:09.135Z,24.80
2022-10-30T12:09:47.219Z,24.60
2022-10-30T12:12:24.726Z,24.60
2022-10-30T12:14:53.228Z,24.50
2022-10-30T12:17:23.488Z,24.40
2022-10-30T12:19:53.035Z,24.30
2022-10-30T12:22:32.385Z,24.20
2022-10-30T12:25:26.744Z,24.10
2022-10-30T12:28:16.923Z,24.00
2022-10-30T12:30:51.233Z,23.90
2022-10-30T12:33:25.866Z,23.80
2022-10-30T12:35:57.319Z,23.70
2022-10-30T12:38:33.840Z,23.60
2022-10-30T12:41:06.155Z,23.50
2022-10-30T12:43:35.572Z,23.40
2022-10-30T12:46:23.279Z,23.30
2022-10-30T12:49:20.738Z,23.10
2022-10-30T12:52:26.292Z,23.00
2022-10-30T12:55:02.211Z,22.70
2022-10-30T12:57:37.156Z,22.60
2022-10-30T13:00:16.490Z,22.50
2022-10-30T13:03:04.203Z,22.40
2022-10-30T13:05:51.528Z,22.20
2022-10-30T13:08:38.041Z,22.10
2022-10-30T13:11:12.141Z,22.00
2022-10-30T13:13:47.497Z,21.90
2022-10-30T13:16:28.991Z,21.80
2022-10-30T13:18:58.220Z,21.80
2022-10-30T13:21:30.731Z,21.70
2022-10-30T13:24:23.664Z,21.70
2022-10-30T13:27:10.234Z,21.70
2022-10-30T13:29:54.297Z,21.60
2022-10-30T13:32:30.105Z,21.60
2022-10-30T13:35:35.389Z,21.50
2022-10-30T13:38:17.298Z,21.40
2022-10-30T13:40:46.594Z,21.20
2022-10-30T13:43:30.455Z,21.20
2022-10-30T13:46:33.090Z,21.10
2022-10-30T13:49:22.947Z,21.00
2022-10-30T13:52:16.941Z,21.00
2022-10-30T13:55:06.095Z,21.00
2022-10-30T13:57:36.478Z,20.90
2022-10-30T14:00:07.223Z,20.90
2022-10-30T14:03:01.055Z,21.00
2022-10-30T14:05:56.658Z,21.00
2022-10-30T14:08:36.392Z,21.10
2022-10-30T14:11:06.255Z,21.10
2022-10-30T14:13:51.735Z,21.20
2022-10-30T14:16:41.122Z,21.20
2022-10-30T14:19:11.126Z,21.20
2022-10-30T14:21:50.816Z,21.20
2022-10-30T14:24:24.574Z,21.10
2022-10-30T14:26:55.661Z,21.00
2022-10-30T14:29:35.127Z,21.00
2022-10-30T14:32:11.976Z,20.90
2022-10-30T14:34:51.538Z,20.80
2022-10-30T14:37:25.562Z,20.70
2022-10-30T14:39:54.677Z,20.70
2022-10-30T14:42:51.946Z,20.60
2022-10-30T14:45:51.687Z,20.50
2022-10-30T14:48:37.663Z,20.40
2022-10-30T14:51:28.089Z,20.20
2022-10-30T14:54:20.089Z,20.20
2022-10-30T14:56:49.740Z,20.10
2022-10-30T14:59:16.948Z,20.00
2022-10-30T15:01:53.101Z,20.00
2022-10-30T15:04:24.090Z,19.90
2022-10-30T15:07:01.979Z,19.80
2022-10-30T15:09:44.765Z,19.70
2022-10-30T15:13:09.077Z,19.70
2022-10-30T15:15:37.529Z,19.60
2022-10-30T15:18:29.408Z,19.50
2022-10-30T15:21:04.550Z,19.50
2022-10-30T15:23:34.453Z,19.40
2022-10-30T15:26:09.598Z,19.30
2022-10-30T15:28:38.995Z,19.20
2022-10-30T15:31:25.970Z,19.20
2022-10-30T15:33:54.728Z,19.10
2022-10-30T15:36:34.744Z,19.10
2022-10-30T15:39:11.014Z,19.00
2022-10-30T15:41:48.614Z,18.90
2022-10-30T15:44:22.525Z,18.90
2022-10-30T15:46:53.430Z,18.90
2022-10-30T15:49:32.491Z,18.90
2022-10-30T15:52:02.989Z,18.80
2022-10-30T15:54:31.296Z,18.70
2022-10-30T16:03:05.969Z,18.40
2022-10-30T16:05:35.289Z,18.40
2022-10-30T16:08:04.888Z,18.30
2022-10-30T16:10:36.473Z,18.20
2022-10-30T16:13:06.346Z,18.10
2022-10-30T16:15:38.601Z,18.00
2022-10-30T16:18:15.678Z,18.00
2022-10-30T16:20:45.882Z,17.90
2022-10-30T16:23:14.104Z,17.80
2022-10-30T16:25:46.730Z,17.80
2022-10-30T16:28:30.165Z,17.70
2022-10-30T16:31:05.533Z,17.70
2022-10-30T16:33:35.368Z,17.70
2022-10-30T16:36:04.288Z,17.60
2022-10-30T16:38:37.496Z,17.60
2022-10-30T16:41:09.407Z,17.60
2022-10-30T16:43:37.627Z,17.50
2022-10-30T16:46:16.779Z,17.50
2022-10-30T16:48:53.970Z,17.50
2022-10-30T16:51:21.441Z,17.50
2022-10-30T16:53:51.344Z,17.50
2022-10-30T16:56:25.536Z,17.40
2022-10-30T16:58:56.239Z,17.30
2022-10-30T17:01:29.398Z,17.30
2022-10-30T17:03:58.341Z,17.30
2022-10-30T17:06:28.919Z,17.20
2022-10-30T17:09:00.346Z,17.20
2022-10-30T17:11:44.717Z,17.20
2022-10-30T17:14:22.568Z,17.10
2022-10-30T17:16:57.990Z,17.00
2022-10-30T17:19:31.883Z,17.00
2022-10-30T17:22:01.949Z,16.90
2022-10-30T17:24:32.823Z,16.90
2022-10-30T17:27:05.849Z,16.90
2022-10-30T17:29:42.406Z,16.90
2022-10-30T17:32:19.080Z,16.90
2022-10-30T17:34:47.761Z,16.90
2022-10-30T17:37:14.997Z,16.90
2022-10-30T17:39:42.063Z,16.90
2022-10-30T17:42:13.636Z,16.90
2022-10-30T17:44:40.972Z,16.90
2022-10-30T17:47:16.645Z,16.90
2022-10-30T17:49:44.487Z,16.90
2022-10-30T17:52:16.366Z,16.90
2022-10-30T17:54:44.462Z,16.90
2022-10-30T17:57:13.237Z,16.90
2022-10-30T17:59:41.332Z,16.80
2022-10-30T18:02:16.588Z,16.80
2022-10-30T18:04:44.982Z,16.80
2022-10-30T18:07:13.529Z,16.70
2022-10-30T18:09:40.931Z,16.70
2022-10-30T18:12:13.405Z,16.70
2022-10-30T18:14:40.462Z,16.70
2022-10-30T18:17:07.501Z,16.70
2022-10-30T18:19:34.939Z,16.60
2022-10-30T18:22:02.721Z,16.60
2022-10-30T18:24:32.273Z,16.60
2022-10-30T18:26:59.923Z,16.50
2022-10-30T18:29:27.022Z,16.40
2022-10-30T18:31:54.296Z,16.40
2022-10-30T18:34:21.569Z,16.30
2022-10-30T18:36:49.326Z,16.20
2022-10-30T18:39:16.819Z,16.20
2022-10-30T18:41:46.121Z,16.20
2022-10-30T18:44:18.328Z,16.10
2022-10-30T18:46:46.330Z,16.10
2022-10-30T18:49:14.003Z,16.10
2022-10-30T18:51:41.260Z,16.10
2022-10-30T18:54:14.956Z,16.00
2022-10-30T18:56:42.078Z,16.00
2022-10-30T18:59:09.617Z,16.10
2022-10-30T19:01:39.188Z,16.00
2022-10-30T19:04:10.496Z,16.00
2022-10-30T19:49:37.729Z,15.70
2022-10-30T19:52:05.545Z,15.70
2022-10-30T19:54:34.768Z,15.70
2022-10-30T19:57:05.825Z,15.70
2022-10-30T19:59:33.624Z,15.70
2022-10-30T20:02:03.266Z,15.60
2022-10-30T20:04:30.962Z,15.60
2022-10-30T20:07:02.188Z,15.50
2022-10-30T20:09:35.013Z,15.50
2022-10-30T20:12:02.163Z,15.40
2022-10-30T20:14:29.566Z,15.40
2022-10-30T20:16:56.741Z,15.40
2022-10-30T20:19:32.612Z,15.30
2022-10-30T20:22:00.109Z,15.30
2022-10-30T20:24:27.333Z,15.30
2022-10-30T20:26:56.432Z,15.30
2022-10-30T20:29:25.046Z,15.20
2022-10-30T20:31:52.135Z,15.20
2022-10-30T20:34:21.669Z,15.20
2022-10-30T20:36:49.096Z,15.20
2022-10-30T20:39:18.565Z,15.20
2022-10-30T20:41:45.827Z,15.20
2022-10-30T20:44:13.297Z,15.20
2022-10-30T20:46:40.498Z,15.20
2022-10-30T20:49:17.350Z,15.10
2022-10-30T20:51:48.413Z,15.10
2022-10-30T20:54:18.420Z,15.10
2022-10-30T20:56:48.471Z,15.10
2022-10-30T20:59:15.630Z,15.10
2022-10-30T21:01:43.280Z,15.10
2022-10-30T21:04:10.569Z,15.10
2022-10-30T21:06:37.690Z,15.10
2022-10-30T21:09:09.679Z,15.00
2022-10-30T21:11:36.760Z,15.00
2022-10-30T21:14:04.040Z,15.00
2022-10-30T21:16:31.457Z,15.00
2022-10-30T21:18:58.487Z,15.00
2022-10-30T21:21:26.165Z,15.00
2022-10-30T21:23:56.371Z,15.00
2022-10-30T21:26:25.795Z,15.00
2022-10-30T21:28:53.028Z,14.90
2022-10-30T21:31:20.583Z,14.90
2022-10-30T21:33:47.738Z,14.90
2022-10-30T21:36:17.518Z,14.80
2022-10-30T21:38:45.164Z,14.80
2022-10-30T21:41:14.969Z,14.70
2022-10-30T21:43:43.132Z,14.70
2022-10-30T21:46:13.650Z,14.60
2022-10-30T21:48:42.996Z,14.60
2022-10-30T21:51:21.863Z,14.50
2022-10-30T21:53:49.845Z,14.50
2022-10-30T21:56:20.613Z,14.40
2022-10-30T21:58:48.418Z,14.40
2022-10-30T22:01:22.648Z,14.40
2022-10-30T22:03:50.110Z,14.40
2022-10-30T22:06:21.295Z,14.30
2022-10-30T22:08:53.622Z,14.30
2022-10-30T22:11:23.126Z,14.40
2022-10-30T22:13:58.169Z,14.40
2022-10-30T22:16:27.493Z,14.50
2022-10-30T22:18:57.818Z,14.40
2022-10-30T22:21:25.189Z,14.50
2022-10-30T22:23:53.375Z,14.50
2022-10-30T22:26:22.219Z,14.50
2022-10-30T22:28:53.764Z,14.50
2022-10-30T22:31:22.522Z,14.50
2022-10-30T22:33:50.066Z,14.50
2022-10-30T22:36:24.357Z,14.50
2022-10-30T22:39:03.371Z,14.40
2022-10-30T22:41:34.724Z,14.40
2022-10-30T22:44:12.825Z,14.30
2022-10-30T22:46:40.045Z,14.30
2022-10-30T22:49:10.162Z,14.30
2022-10-30T22:51:40.090Z,14.20
2022-10-30T22:54:10.033Z,14.20
2022-10-30T22:56:40.696Z,14.10
2022-10-30T22:59:13.690Z,14.20
2022-10-30T23:01:43.137Z,14.20
2022-10-30T23:04:11.933Z,14.20
2022-10-30T23:06:39.393Z,14.20
2022-10-30T23:09:14.682Z,14.20
2022-10-30T23:11:42.188Z,14.30
2022-10-30T23:14:11.587Z,14.20
2022-10-30T23:16:44.090Z,14.20
2022-10-30T23:19:11.398Z,14.20
2022-10-30T23:21:41.135Z,14.40
2022-10-30T23:24:10.728Z,14.40
2022-10-30T23:26:40.573Z,14.50
2022-10-30T23:29:10.278Z,14.60
2022-10-30T23:31:40.251Z,14.60
2022-10-30T23:34:12.512Z,14.60
2022-10-30T23:36:42.809Z,14.60
2022-10-30T23:39:17.689Z,14.60
2022-10-30T23:41:45.387Z,14.60
2022-10-30T23:44:14.553Z,14.60
2022-10-30T23:46:44.877Z,14.50
2022-10-30T23:49:12.071Z,14.40
2022-10-30T23:51:39.540Z,14.40
2022-10-30T23:54:06.570Z,14.40
2022-10-30T23:56:36.199Z,14.40
2022-10-30T23:59:06.464Z,14.30
